createdAt,value
2018-04-07T00:00:23.403Z,11.26
2018-04-07T00:02:50.811Z,11.25
2018-04-07T00:05:18.243Z,11.20
2018-04-07T00:07:45.669Z,11.13
2018-04-07T00:10:13.112Z,11.04
2018-04-07T00:12:41.219Z,11.02
2018-04-07T00:15:08.685Z,11.03
2018-04-07T00:17:36.135Z,11.03
2018-04-07T00:20:03.603Z,11.04
2018-04-07T00:22:31.032Z,11.07
2018-04-07T00:24:58.543Z,11.04
2018-04-07T00:27:25.940Z,10.98
2018-04-07T00:29:53.376Z,10.92
2018-04-07T00:32:20.848Z,10.90
2018-04-07T00:34:48.241Z,10.87
2018-04-07T00:37:15.652Z,10.86
2018-04-07T00:39:43.086Z,10.86
2018-04-07T00:42:10.518Z,10.85
2018-04-07T00:44:37.918Z,10.87
2018-04-07T00:47:05.306Z,10.89
2018-04-07T00:49:32.736Z,10.93
2018-04-07T00:52:00.157Z,10.92
2018-04-07T00:54:27.550Z,10.91
2018-04-07T00:56:55.015Z,10.87
2018-04-07T00:59:22.545Z,10.80
2018-04-07T01:01:49.979Z,10.69
2018-04-07T01:04:17.442Z,10.64
2018-04-07T01:06:45.638Z,10.63
2018-04-07T01:09:13.095Z,10.67
2018-04-07T01:11:40.526Z,10.67
2018-04-07T01:14:08.004Z,10.69
2018-04-07T01:16:35.448Z,10.72
2018-04-07T01:19:02.901Z,10.67
2018-04-07T01:21:30.357Z,10.58
2018-04-07T01:23:57.784Z,10.51
2018-04-07T01:26:25.220Z,10.48
2018-04-07T01:28:53.176Z,10.42
2018-04-07T01:31:20.698Z,10.42
2018-04-07T01:33:48.101Z,10.46
2018-04-07T01:36:15.546Z,10.42
2018-04-07T01:38:42.983Z,10.39
2018-04-07T01:41:10.412Z,10.37
2018-04-07T01:43:37.929Z,10.36
2018-04-07T01:46:05.348Z,10.33
2018-04-07T01:48:32.756Z,10.24
2018-04-07T01:51:00.197Z,10.08
2018-04-07T01:53:27.710Z,10.04
2018-04-07T01:55:55.167Z,10.08
2018-04-07T01:58:22.609Z,10.06
2018-04-07T02:00:50.004Z,10.04
2018-04-07T02:03:17.441Z,10.07
2018-04-07T02:05:44.898Z,10.09
2018-04-07T02:08:12.343Z,10.09
2018-04-07T02:10:39.804Z,10.12
2018-04-07T02:13:07.279Z,10.15
2018-04-07T02:15:34.676Z,10.17
2018-04-07T02:18:02.121Z,10.14
2018-04-07T02:20:29.549Z,10.07
2018-04-07T02:22:56.940Z,10.02
2018-04-07T02:25:24.511Z,9.97
2018-04-07T02:27:51.970Z,9.95
2018-04-07T02:30:19.352Z,9.95
2018-04-07T02:32:46.833Z,9.95
2018-04-07T02:35:14.433Z,9.95
2018-04-07T02:37:41.904Z,9.89
2018-04-07T02:40:09.408Z,9.88
2018-04-07T02:42:36.867Z,9.86
2018-04-07T02:45:04.274Z,9.86
2018-04-07T02:47:31.792Z,9.79
2018-04-07T02:49:59.173Z,9.62
2018-04-07T02:52:26.607Z,9.52
2018-04-07T02:54:54.079Z,9.61
2018-04-07T02:57:21.480Z,9.63
2018-04-07T02:59:48.906Z,9.56
2018-04-07T03:02:16.331Z,9.54
2018-04-07T03:04:43.794Z,9.52
2018-04-07T03:07:11.501Z,9.54
2018-04-07T03:09:38.929Z,9.60
2018-04-07T03:12:06.427Z,9.60
2018-04-07T03:14:33.828Z,9.49
2018-04-07T03:17:01.268Z,9.47
2018-04-07T03:19:28.701Z,9.47
2018-04-07T03:21:56.140Z,9.44
2018-04-07T03:24:23.566Z,9.41
2018-04-07T03:26:51.011Z,9.41
2018-04-07T03:29:18.575Z,9.40
2018-04-07T03:31:46.023Z,9.42
2018-04-07T03:34:13.451Z,9.38
2018-04-07T03:36:40.897Z,9.36
2018-04-07T03:39:08.312Z,9.29
2018-04-07T03:41:36.220Z,9.23
2018-04-07T03:44:03.633Z,9.12
2018-04-07T03:46:31.023Z,9.19
2018-04-07T03:48:58.438Z,9.22
2018-04-07T03:51:25.862Z,9.20
2018-04-07T03:53:53.336Z,9.19
2018-04-07T03:56:20.716Z,9.16
2018-04-07T03:58:48.229Z,9.11
2018-04-07T04:01:15.689Z,9.13
2018-04-07T04:03:43.114Z,9.17
2018-04-07T04:06:10.590Z,9.19
2018-04-07T04:08:38.012Z,9.15
2018-04-07T04:11:05.414Z,9.13
2018-04-07T04:13:32.861Z,9.04
2018-04-07T04:16:00.445Z,9.08
2018-04-07T04:18:28.735Z,9.07
2018-04-07T04:20:57.306Z,9.12
2018-04-07T04:23:24.785Z,9.09
2018-04-07T04:25:52.156Z,9.04
2018-04-07T04:28:19.600Z,9.08
2018-04-07T04:30:47.027Z,9.02
2018-04-07T04:33:14.438Z,9.04
2018-04-07T04:35:41.857Z,9.04
2018-04-07T04:38:09.385Z,9.02
2018-04-07T04:40:36.938Z,9.04
2018-04-07T04:43:04.326Z,8.99
2018-04-07T04:45:32.017Z,9.00
2018-04-07T04:47:59.482Z,9.01
2018-04-07T04:50:27.016Z,8.97
2018-04-07T04:52:54.631Z,8.98
2018-04-07T04:55:22.470Z,9.03
2018-04-07T04:57:49.982Z,9.04
2018-04-07T05:00:17.435Z,9.04
2018-04-07T05:02:45.001Z,9.10
2018-04-07T05:05:12.470Z,9.13
2018-04-07T05:07:39.928Z,9.16
2018-04-07T05:10:07.413Z,9.19
2018-04-07T05:12:34.809Z,9.20
2018-04-07T05:15:02.252Z,9.20
2018-04-07T05:17:29.684Z,9.18
2018-04-07T05:19:57.080Z,9.19
2018-04-07T05:22:24.513Z,9.23
2018-04-07T05:24:52.218Z,9.25
2018-04-07T05:27:20.048Z,9.27
2018-04-07T05:29:47.530Z,9.30
2018-04-07T05:32:15.118Z,9.30
2018-04-07T05:34:42.583Z,9.31
2018-04-07T05:37:10.025Z,9.36
2018-04-07T05:39:37.469Z,9.44
2018-04-07T05:42:04.932Z,9.45
2018-04-07T05:44:32.379Z,9.49
2018-04-07T05:47:00.514Z,9.59
2018-04-07T05:49:33.694Z,9.70
2018-04-07T05:52:01.373Z,9.72
2018-04-07T05:54:28.808Z,9.80
2018-04-07T05:56:56.195Z,9.86
2018-04-07T05:59:23.633Z,10.06
2018-04-07T06:01:51.064Z,10.46
2018-04-07T06:04:18.490Z,10.83
2018-04-07T06:06:45.884Z,11.23
2018-04-07T06:09:13.326Z,11.43
2018-04-07T06:11:40.728Z,11.63
2018-04-07T06:14:08.127Z,12.08
2018-04-07T06:16:35.617Z,12.64
2018-04-07T06:19:03.097Z,13.04
2018-04-07T06:21:30.610Z,13.36
2018-04-07T06:23:58.023Z,13.45
2018-04-07T06:26:25.444Z,13.71
2018-04-07T06:28:52.905Z,13.80
2018-04-07T06:31:20.410Z,13.83
2018-04-07T06:33:47.879Z,14.07
2018-04-07T06:36:15.325Z,14.44
2018-04-07T06:38:42.763Z,14.74
2018-04-07T06:41:10.230Z,15.10
2018-04-07T06:43:37.806Z,15.47
2018-04-07T06:46:05.278Z,15.82
2018-04-07T06:48:32.676Z,16.05
2018-04-07T06:51:00.155Z,16.21
2018-04-07T06:53:27.621Z,16.35
2018-04-07T06:55:55.044Z,16.67
2018-04-07T06:58:22.658Z,16.91
2018-04-07T07:00:50.054Z,16.78
2018-04-07T07:03:17.546Z,16.77
2018-04-07T07:05:44.993Z,16.99
2018-04-07T07:08:12.417Z,16.95
2018-04-07T07:10:39.954Z,17.35
2018-04-07T07:13:07.389Z,17.60
2018-04-07T07:15:34.856Z,17.95
2018-04-07T07:18:02.284Z,18.27
2018-04-07T07:20:29.706Z,18.84
2018-04-07T07:22:57.157Z,19.32
2018-04-07T07:25:24.614Z,19.70
2018-04-07T07:27:52.484Z,19.70
2018-04-07T07:30:19.884Z,19.71
2018-04-07T07:32:47.328Z,19.73
2018-04-07T07:35:14.726Z,19.83
2018-04-07T07:37:42.182Z,19.94
2018-04-07T07:40:09.710Z,19.67
2018-04-07T07:42:37.300Z,19.50
2018-04-07T07:45:04.770Z,18.22
2018-04-07T07:47:32.164Z,17.35
2018-04-07T07:49:59.610Z,17.49
2018-04-07T07:52:27.004Z,18.20
2018-04-07T07:54:54.423Z,18.36
2018-04-07T07:57:21.877Z,18.18
2018-04-07T07:59:49.378Z,18.42
2018-04-07T08:02:16.871Z,18.89
2018-04-07T08:04:44.421Z,19.80
2018-04-07T08:07:11.961Z,19.87
2018-04-07T08:09:39.422Z,20.29
2018-04-07T08:12:06.854Z,21.09
2018-04-07T08:14:34.354Z,21.07
2018-04-07T08:17:01.917Z,21.69
2018-04-07T08:19:30.016Z,22.05
2018-04-07T08:21:57.685Z,22.04
2018-04-07T08:24:25.117Z,22.57
2018-04-07T08:26:52.570Z,22.93
2018-04-07T08:29:20.048Z,22.95
2018-04-07T08:31:47.453Z,22.97
2018-04-07T08:34:14.964Z,23.57
2018-04-07T08:36:42.749Z,23.17
2018-04-07T08:39:10.698Z,23.41
2018-04-07T08:41:38.103Z,23.69
2018-04-07T08:44:05.760Z,23.92
2018-04-07T08:46:33.184Z,24.10
2018-04-07T08:49:00.625Z,23.60
2018-04-07T08:51:28.063Z,23.80
2018-04-07T08:53:55.598Z,23.75
2018-04-07T08:56:23.344Z,23.43
2018-04-07T08:58:50.776Z,22.61
2018-04-07T09:01:18.186Z,21.93
2018-04-07T09:03:45.621Z,21.63
2018-04-07T09:06:13.056Z,22.05
2018-04-07T09:08:40.545Z,22.54
2018-04-07T09:11:07.992Z,22.17
2018-04-07T09:13:35.475Z,21.39
2018-04-07T09:16:02.904Z,20.87
2018-04-07T09:18:30.322Z,20.61
2018-04-07T09:20:57.856Z,20.27
2018-04-07T09:23:25.330Z,20.09
2018-04-07T09:25:53.007Z,19.94
2018-04-07T09:28:20.388Z,20.04
2018-04-07T09:30:48.435Z,20.68
2018-04-07T09:33:15.874Z,21.47
2018-04-07T09:35:43.452Z,21.97
2018-04-07T09:38:10.927Z,22.23
2018-04-07T09:40:38.369Z,22.19
2018-04-07T09:43:05.817Z,22.22
2018-04-07T09:45:33.246Z,22.23
2018-04-07T09:48:00.643Z,22.39
2018-04-07T09:50:28.088Z,22.56
2018-04-07T09:52:58.809Z,22.69
2018-04-07T09:55:26.334Z,23.11
2018-04-07T09:57:53.740Z,23.23
2018-04-07T10:00:21.190Z,23.25
2018-04-07T10:02:48.623Z,22.93
2018-04-07T10:05:16.136Z,23.10
2018-04-07T10:07:43.542Z,23.35
2018-04-07T10:10:10.977Z,23.36
2018-04-07T10:12:38.470Z,23.85
2018-04-07T10:15:05.905Z,24.26
2018-04-07T10:17:33.538Z,24.65
2018-04-07T10:20:00.967Z,24.37
2018-04-07T10:22:28.420Z,24.39
2018-04-07T10:24:56.450Z,24.36
2018-04-07T10:27:23.992Z,24.60
2018-04-07T10:29:51.506Z,24.47
2018-04-07T10:32:18.939Z,24.64
2018-04-07T10:34:46.400Z,24.84
2018-04-07T10:37:13.845Z,24.67
2018-04-07T10:39:41.303Z,24.68
2018-04-07T10:42:08.769Z,24.13
2018-04-07T10:44:36.274Z,23.46
2018-04-07T10:47:03.772Z,23.32
2018-04-07T10:49:31.234Z,23.09
2018-04-07T10:51:58.685Z,22.59
2018-04-07T10:54:26.097Z,22.02
2018-04-07T10:56:53.734Z,21.61
2018-04-07T10:59:21.413Z,21.36
2018-04-07T11:01:48.917Z,21.21
2018-04-07T11:04:16.375Z,21.16
2018-04-07T11:06:44.049Z,20.93
2018-04-07T11:09:11.684Z,20.78
2018-04-07T11:11:42.451Z,20.64
2018-04-07T11:14:09.901Z,20.56
2018-04-07T11:16:37.416Z,20.53
2018-04-07T11:19:04.913Z,20.55
2018-04-07T11:21:32.538Z,20.56
2018-04-07T11:23:59.969Z,20.67
2018-04-07T11:26:27.431Z,20.66
2018-04-07T11:28:54.832Z,20.44
2018-04-07T11:31:22.409Z,20.23
2018-04-07T11:33:49.862Z,20.19
2018-04-07T11:36:17.448Z,20.27
2018-04-07T11:38:45.608Z,20.30
2018-04-07T11:41:13.036Z,20.24
2018-04-07T11:43:40.486Z,20.12
2018-04-07T11:46:07.997Z,19.82
2018-04-07T11:48:35.548Z,19.71
2018-04-07T11:51:02.982Z,19.48
2018-04-07T11:53:30.427Z,19.72
2018-04-07T11:55:57.884Z,19.78
2018-04-07T11:58:25.357Z,19.71
2018-04-07T12:00:52.832Z,19.64
2018-04-07T12:03:20.324Z,19.71
2018-04-07T12:05:47.762Z,19.81
2018-04-07T12:08:15.188Z,19.68
2018-04-07T12:10:42.649Z,19.59
2018-04-07T12:13:13.340Z,19.64
2018-04-07T12:15:40.783Z,19.66
2018-04-07T12:18:08.246Z,19.73
2018-04-07T12:20:35.673Z,19.80
2018-04-07T12:23:03.140Z,20.13
2018-04-07T12:25:30.599Z,20.43
2018-04-07T12:27:58.066Z,20.56
2018-04-07T12:30:25.593Z,20.77
2018-04-07T12:32:52.994Z,20.90
2018-04-07T12:35:20.481Z,21.14
2018-04-07T12:37:47.893Z,21.72
2018-04-07T12:40:15.410Z,21.95
2018-04-07T12:42:42.912Z,21.71
2018-04-07T12:45:10.402Z,21.23
2018-04-07T12:47:37.869Z,20.89
2018-04-07T12:50:05.375Z,20.75
2018-04-07T12:52:32.910Z,20.98
2018-04-07T12:55:00.314Z,20.97
2018-04-07T12:57:27.832Z,20.96
2018-04-07T12:59:55.296Z,20.85
2018-04-07T13:02:22.792Z,20.83
2018-04-07T13:04:50.275Z,20.80
2018-04-07T13:07:17.685Z,20.68
2018-04-07T13:09:48.380Z,20.77
2018-04-07T13:12:15.829Z,21.19
2018-04-07T13:14:43.301Z,21.47
2018-04-07T13:17:10.733Z,21.69
2018-04-07T13:19:38.152Z,21.91
2018-04-07T13:22:05.595Z,22.05
2018-04-07T13:24:33.094Z,22.19
2018-04-07T13:27:03.639Z,22.17
2018-04-07T13:29:31.136Z,22.28
2018-04-07T13:31:58.638Z,22.57
2018-04-07T13:34:26.077Z,22.70
2018-04-07T13:36:53.654Z,22.60
2018-04-07T13:39:22.125Z,22.31
2018-04-07T13:41:49.584Z,22.17
2018-04-07T13:44:20.069Z,21.85
2018-04-07T13:46:47.550Z,21.73
2018-04-07T13:49:15.082Z,22.22
2018-04-07T13:51:42.495Z,22.63
2018-04-07T13:54:09.925Z,22.58
2018-04-07T13:56:37.398Z,22.53
2018-04-07T13:59:04.916Z,22.73
2018-04-07T14:01:33.981Z,22.84
2018-04-07T14:04:01.502Z,22.99
2018-04-07T14:06:28.965Z,23.11
2018-04-07T14:08:56.434Z,22.83
2018-04-07T14:11:23.867Z,22.93
2018-04-07T14:13:51.345Z,23.37
2018-04-07T14:16:18.841Z,22.65
2018-04-07T14:18:46.438Z,22.13
2018-04-07T14:21:13.937Z,22.60
2018-04-07T14:23:41.397Z,23.16
2018-04-07T14:26:12.021Z,23.11
2018-04-07T14:28:39.551Z,23.02
2018-04-07T14:31:06.983Z,23.08
2018-04-07T14:33:34.461Z,23.23
2018-04-07T14:36:01.941Z,23.61
2018-04-07T14:38:29.359Z,23.71
2018-04-07T14:40:56.845Z,23.69
2018-04-07T14:43:24.410Z,23.98
2018-04-07T14:45:51.884Z,24.08
2018-04-07T14:48:19.642Z,23.79
2018-04-07T14:50:47.122Z,23.39
2018-04-07T14:53:14.592Z,23.13
2018-04-07T14:55:42.057Z,22.99
2018-04-07T14:58:09.495Z,23.27
2018-04-07T15:00:36.896Z,23.55
2018-04-07T15:03:04.370Z,23.31
2018-04-07T15:05:31.794Z,23.03
2018-04-07T15:07:59.232Z,23.05
2018-04-07T15:10:26.673Z,22.96
2018-04-07T15:12:54.111Z,22.79
2018-04-07T15:15:21.560Z,22.58
2018-04-07T15:17:48.988Z,22.63
2018-04-07T15:20:16.459Z,22.76
2018-04-07T15:22:43.930Z,22.93
2018-04-07T15:25:11.436Z,22.90
2018-04-07T15:27:38.892Z,22.80
2018-04-07T15:30:06.329Z,22.57
2018-04-07T15:32:33.740Z,22.52
2018-04-07T15:35:01.499Z,23.05
2018-04-07T15:37:29.003Z,23.41
2018-04-07T15:39:56.435Z,23.49
2018-04-07T15:42:23.869Z,23.46
2018-04-07T15:44:51.335Z,23.15
2018-04-07T15:47:18.927Z,23.11
2018-04-07T15:49:46.374Z,23.26
2018-04-07T15:52:13.804Z,23.02
2018-04-07T15:54:41.310Z,22.83
2018-04-07T15:57:11.789Z,22.75
2018-04-07T15:59:39.221Z,22.39
2018-04-07T16:02:06.641Z,22.01
2018-04-07T16:04:34.078Z,21.45
2018-04-07T16:07:01.642Z,21.07
2018-04-07T16:09:29.217Z,20.85
2018-04-07T16:11:56.715Z,20.65
2018-04-07T16:14:24.276Z,20.59
2018-04-07T16:16:51.871Z,20.51
2018-04-07T16:19:19.280Z,20.46
2018-04-07T16:21:46.718Z,20.51
2018-04-07T16:24:14.114Z,20.61
2018-04-07T16:26:41.574Z,20.73
2018-04-07T16:29:08.997Z,20.88
2018-04-07T16:31:36.777Z,20.97
2018-04-07T16:34:04.240Z,21.00
2018-04-07T16:36:31.706Z,21.03
2018-04-07T16:38:59.242Z,21.04
2018-04-07T16:41:26.660Z,20.97
2018-04-07T16:43:54.095Z,20.73
2018-04-07T16:46:21.497Z,20.63
2018-04-07T16:48:48.937Z,20.57
2018-04-07T16:51:16.411Z,20.56
2018-04-07T16:53:43.838Z,20.61
2018-04-07T16:56:11.268Z,20.70
2018-04-07T16:58:38.742Z,20.61
2018-04-07T17:01:13.113Z,20.57
2018-04-07T17:03:40.710Z,20.60
2018-04-07T17:06:08.495Z,20.60
2018-04-07T17:08:36.126Z,20.55
2018-04-07T17:11:03.572Z,20.42
2018-04-07T17:13:31.030Z,20.26
2018-04-07T17:15:58.432Z,19.99
2018-04-07T17:18:25.852Z,19.78
2018-04-07T17:20:53.294Z,19.53
2018-04-07T17:23:20.779Z,19.19
2018-04-07T17:25:48.185Z,18.86
2018-04-07T17:28:15.719Z,18.73
2018-04-07T17:30:43.629Z,18.63
2018-04-07T17:33:11.071Z,18.57
2018-04-07T17:35:38.563Z,18.57
2018-04-07T17:38:09.184Z,18.57
2018-04-07T17:40:36.689Z,18.57
2018-04-07T17:43:04.101Z,18.55
2018-04-07T17:45:31.566Z,18.43
2018-04-07T17:47:59.060Z,18.38
2018-04-07T17:50:26.577Z,18.32
2018-04-07T17:52:54.096Z,18.19
2018-04-07T17:55:24.712Z,18.01
2018-04-07T17:57:52.141Z,17.92
2018-04-07T18:00:20.240Z,17.84
2018-04-07T18:02:47.681Z,17.69
2018-04-07T18:05:15.100Z,17.60
2018-04-07T18:07:42.663Z,17.51
2018-04-07T18:10:10.161Z,17.44
2018-04-07T18:12:37.608Z,17.36
2018-04-07T18:15:05.104Z,17.31
2018-04-07T18:17:32.538Z,17.27
2018-04-07T18:19:59.988Z,17.22
2018-04-07T18:22:30.394Z,17.26
2018-04-07T18:24:57.928Z,17.28
2018-04-07T18:27:25.397Z,17.17
2018-04-07T18:29:52.840Z,17.10
2018-04-07T18:32:20.232Z,17.06
2018-04-07T18:34:47.814Z,17.06
2018-04-07T18:37:15.293Z,17.06
2018-04-07T18:39:42.723Z,17.07
2018-04-07T18:42:10.236Z,16.93
2018-04-07T18:44:37.743Z,16.82
2018-04-07T18:47:05.246Z,16.78
2018-04-07T18:49:32.805Z,16.76
2018-04-07T18:52:00.251Z,16.80
2018-04-07T18:54:30.815Z,16.81
2018-04-07T18:56:58.280Z,16.81
2018-04-07T18:59:25.777Z,16.73
2018-04-07T19:01:53.237Z,16.68
2018-04-07T19:04:20.801Z,16.61
2018-04-07T19:06:48.336Z,16.56
2018-04-07T19:09:15.824Z,16.56
2018-04-07T19:11:43.303Z,16.56
2018-04-07T19:14:10.760Z,16.53
2018-04-07T19:16:38.231Z,16.54
2018-04-07T19:19:05.758Z,16.55
2018-04-07T19:21:36.362Z,16.60
2018-04-07T19:24:03.846Z,16.66
2018-04-07T19:26:31.399Z,16.68
2018-04-07T19:28:58.939Z,16.72
2018-04-07T19:31:26.525Z,16.77
2018-04-07T19:33:53.970Z,16.80
2018-04-07T19:36:21.484Z,16.87
2018-04-07T19:38:48.954Z,16.85
2018-04-07T19:41:16.489Z,16.79
2018-04-07T19:43:43.862Z,16.75
2018-04-07T19:46:11.293Z,16.65
2018-04-07T19:48:38.894Z,16.52
2018-04-07T19:51:06.426Z,16.43
2018-04-07T19:53:33.884Z,16.35
2018-04-07T19:56:01.295Z,16.17
2018-04-07T19:58:28.740Z,15.94
2018-04-07T20:00:59.392Z,15.81
2018-04-07T20:03:26.884Z,15.75
2018-04-07T20:05:54.359Z,15.80
2018-04-07T20:08:21.843Z,15.85
2018-04-07T20:10:49.335Z,15.91
2018-04-07T20:13:16.733Z,15.93
2018-04-07T20:15:44.227Z,15.96
2018-04-07T20:18:11.674Z,15.99
2018-04-07T20:20:39.858Z,16.00
2018-04-07T20:23:07.293Z,16.02
2018-04-07T20:25:34.700Z,16.00
2018-04-07T20:28:05.215Z,16.02
2018-04-07T20:30:32.771Z,16.04
2018-04-07T20:33:00.252Z,16.02
2018-04-07T20:35:27.680Z,15.87
2018-04-07T20:37:55.443Z,15.72
2018-04-07T20:40:22.860Z,15.72
2018-04-07T20:42:50.338Z,15.71
2018-04-07T20:45:17.806Z,15.72
2018-04-07T20:47:45.250Z,15.75
2018-04-07T20:50:12.781Z,15.82
2018-04-07T20:52:40.596Z,15.91
2018-04-07T20:55:08.009Z,15.96
2018-04-07T20:57:38.621Z,15.99
2018-04-07T21:00:06.091Z,16.03
2018-04-07T21:02:33.970Z,16.04
2018-04-07T21:05:01.498Z,15.99
2018-04-07T21:07:28.910Z,15.97
2018-04-07T21:09:56.399Z,15.95
2018-04-07T21:12:23.871Z,15.96
2018-04-07T21:14:51.297Z,15.96
2018-04-07T21:17:18.783Z,15.98
2018-04-07T21:19:46.218Z,15.99
2018-04-07T21:22:13.639Z,15.95
2018-04-07T21:24:44.214Z,15.94
2018-04-07T21:27:11.652Z,15.93
2018-04-07T21:29:39.070Z,15.92
2018-04-07T21:32:06.516Z,15.92
2018-04-07T21:34:33.927Z,15.86
2018-04-07T21:37:01.425Z,15.79
2018-04-07T21:39:28.857Z,15.75
2018-04-07T21:41:56.464Z,15.65
2018-04-07T21:44:23.953Z,15.54
2018-04-07T21:46:51.427Z,15.49
2018-04-07T21:49:18.897Z,15.43
2018-04-07T21:51:46.449Z,15.42
2018-04-07T21:54:17.095Z,15.44
2018-04-07T21:56:44.555Z,15.45
2018-04-07T21:59:11.970Z,15.44
2018-04-07T22:01:39.421Z,15.40
2018-04-07T22:04:06.855Z,15.38
2018-04-07T22:06:34.244Z,15.31
2018-04-07T22:09:01.697Z,15.23
2018-04-07T22:11:29.316Z,15.13
2018-04-07T22:13:56.823Z,15.07
2018-04-07T22:16:24.306Z,14.99
2018-04-07T22:18:51.760Z,14.95
2018-04-07T22:21:19.277Z,14.93
2018-04-07T22:23:46.709Z,14.88
2018-04-07T22:26:17.319Z,14.78
2018-04-07T22:28:44.785Z,14.70
2018-04-07T22:31:12.179Z,14.67
2018-04-07T22:33:39.619Z,14.66
2018-04-07T22:36:07.877Z,14.67
2018-04-07T22:38:35.305Z,14.62
2018-04-07T22:41:02.811Z,14.64
2018-04-07T22:43:30.270Z,14.65
2018-04-07T22:45:57.692Z,14.64
2018-04-07T22:48:25.181Z,14.64
2018-04-07T22:50:52.615Z,14.64
2018-04-07T22:53:20.075Z,14.59
2018-04-07T22:55:47.503Z,14.48
2018-04-07T22:58:14.901Z,14.47
2018-04-07T23:00:42.337Z,14.59
2018-04-07T23:03:09.830Z,14.66
2018-04-07T23:05:37.340Z,14.73
2018-04-07T23:08:04.748Z,14.79
2018-04-07T23:10:32.224Z,14.84
2018-04-07T23:12:59.666Z,14.90
2018-04-07T23:15:27.938Z,14.93
2018-04-07T23:17:55.367Z,14.92
2018-04-07T23:20:22.839Z,14.89
2018-04-07T23:22:53.796Z,14.92
2018-04-07T23:25:21.193Z,14.92
2018-04-07T23:27:48.645Z,14.90
2018-04-07T23:30:16.054Z,14.93
2018-04-07T23:32:43.495Z,14.92
2018-04-07T23:35:10.901Z,14.91
2018-04-07T23:37:38.346Z,14.90
2018-04-07T23:40:05.771Z,14.87
2018-04-07T23:42:33.201Z,14.88
2018-04-07T23:45:00.593Z,14.84
2018-04-07T23:47:28.003Z,14.80
2018-04-07T23:49:55.970Z,14.78
2018-04-07T23:52:23.388Z,14.69
2018-04-07T23:54:50.878Z,14.51
2018-04-07T23:57:21.567Z,14.37
2018-04-07T23:59:49.025Z,14.35
